Oceanus — WDI8151 — position and weather

sailwx.info

Track history (hours):
 
Tides and Currents Weather Stations Pressure Air Temp Water Temp Dewpoint Dewpoint Depression Visibility Wind Speed Wind Dir Waves Ship Positions

Oceanus

Owner: G & H TOWING COMPANY, Galveston, TX. More information available from US FCC via Universal Licensing System and Coast Guard Vessel Documentation Center.

Last reported at 2018-Apr-26 03:20 UTC. Time now 2018-Apr-26 03:34 UTC.
Position N 29°45' W 095°06'.

Length 24 m; draft 5.4 m.

Type: Tug. MMSI: 367735750.

Date/timePositionNaut miles runAvg speedWind from/ knotsBaromVisibWave heightAir tempDewpointWater temp
2018-Apr-26 03:20N 29°45' W 095°06'1 0.2
2018-Apr-25 23:06N 29°44' W 095°07'0 0.0
2018-Apr-25 22:59N 29°44' W 095°07'0 0.0
2018-Apr-25 22:17N 29°44' W 095°07'0 0.0
2018-Apr-25 21:59N 29°44' W 095°07'0 0.0
2018-Apr-25 21:29N 29°44' W 095°07'0 0.0
2018-Apr-25 20:56N 29°44' W 095°07'0 0.0
2018-Apr-25 20:26N 29°44' W 095°07'0 0.0
2018-Apr-25 19:59N 29°44' W 095°07'1 1.2
2018-Apr-25 19:30N 29°44' W 095°08'0 0.1
2018-Apr-25 19:00N 29°44' W 095°08'1 2.4
2018-Apr-25 18:25N 29°45' W 095°06'1 1.8
2018-Apr-25 17:58N 29°44' W 095°07'0 0.0
2018-Apr-25 17:26N 29°44' W 095°07'1 1.3
2018-Apr-25 16:56N 29°44' W 095°08'1 0.6
2018-Apr-25 15:54N 29°44' W 095°07'1 1.2
2018-Apr-25 15:29N 29°44' W 095°07'0 0.3
2018-Apr-25 14:58N 29°44' W 095°08'1 0.2
2018-Apr-25 12:37N 29°44' W 095°07'0 0.0
2018-Apr-25 12:28N 29°44' W 095°07'1 1.4
2018-Apr-25 12:00N 29°44' W 095°08'0 0.3
2018-Apr-25 11:27N 29°44' W 095°08'1 1.4
2018-Apr-25 10:47N 29°45' W 095°07'0 0.0
2018-Apr-25 10:28N 29°45' W 095°07'0 0.3
2018-Apr-25 09:32N 29°44' W 095°07'0 2.5
2018-Apr-25 09:28N 29°44' W 095°07'0 0.0
2018-Apr-24 21:57N 29°44' W 095°07'0 0.1
2018-Apr-24 21:17N 29°44' W 095°07'1 1.7
2018-Apr-24 20:45N 29°45' W 095°06'0 0.7
2018-Apr-24 20:29N 29°45' W 095°06'4 7.3
2018-Apr-24 19:59N 29°45' W 095°10'3 0.6
2018-Apr-24 16:01N 29°44' W 095°08'0 5.6
2018-Apr-24 16:00N 29°44' W 095°08'1 1.7
2018-Apr-24 15:29N 29°45' W 095°07'0 0.0
2018-Apr-24 14:58N 29°45' W 095°07'0 0.0
2018-Apr-24 14:28N 29°45' W 095°07'0 0.0
2018-Apr-24 14:00N 29°45' W 095°07'0 0.0
2018-Apr-24 13:30N 29°45' W 095°07'0 0.0
2018-Apr-24 03:32N 29°44' W 095°07'0 1.8
2018-Apr-24 03:30N 29°44' W 095°07'5 2.3
2018-Apr-24 01:25N 29°43' W 095°01'1 2.3
2018-Apr-24 00:52N 29°42' W 095°01'0 0.0
2018-Apr-24 00:22N 29°42' W 095°01'0 0.0
2018-Apr-23 23:56N 29°42' W 095°01'3 5.8
2018-Apr-23 23:30N 29°44' W 095°03'0 0.3
2018-Apr-23 23:00N 29°44' W 095°03'0 0.9
2018-Apr-23 22:28N 29°44' W 095°03'1 2.0
2018-Apr-23 22:00N 29°44' W 095°04'3 5.7
2018-Apr-23 21:30N 29°44' W 095°07'1 0.4
2018-Apr-23 19:38N 29°45' W 095°06'1 0.7
2018-Apr-23 18:50N 29°44' W 095°07'0 0.1
2018-Apr-23 13:02N 29°45' W 095°06'0 0.5
2018-Apr-23 12:22N 29°45' W 095°06'0 0.2
2018-Apr-23 11:49N 29°45' W 095°06'0 0.3
2018-Apr-23 10:53N 29°45' W 095°06'2 3.8
2018-Apr-23 10:15N 29°44' W 095°09'4 7.0
2018-Apr-23 09:39N 29°44' W 095°14'3 0.1
2018-Apr-22 06:24N 29°45' W 095°10'0 0.5
2018-Apr-22 05:54N 29°45' W 095°10'0 0.0
2018-Apr-22 05:30N 29°45' W 095°10'4 0.8
2018-Apr-22 00:56N 29°45' W 095°06'0 0.1
2018-Apr-21 22:36N 29°45' W 095°06'0 0.4
2018-Apr-21 21:18N 29°45' W 095°06'1 2.5
2018-Apr-21 20:57N 29°46' W 095°05'2 3.4
2018-Apr-21 20:30N 29°45' W 095°07'0 0.3
2018-Apr-21 20:00N 29°44' W 095°07'2 3.5
2018-Apr-21 19:26N 29°44' W 095°09'2 1.9
2018-Apr-21 18:29N 29°44' W 095°07'0 0.4
2018-Apr-21 18:00N 29°45' W 095°07'0 0.1
2018-Apr-21 15:38N 29°44' W 095°07'0 0.0
2018-Apr-21 15:28N 29°44' W 095°07'0 0.0
2018-Apr-21 14:34N 29°44' W 095°07'1 0.4
2018-Apr-21 13:16N 29°44' W 095°08'1 0.0
2018-Apr-20 22:47N 29°44' W 095°07'0 1.5
2018-Apr-20 22:29N 29°44' W 095°07'0 0.0
2018-Apr-20 21:56N 29°44' W 095°07'1 1.5
2018-Apr-20 21:29N 29°44' W 095°07'2 0.7
2018-Apr-20 19:02N 29°46' W 095°05'0 0.0
2018-Apr-20 18:48N 29°46' W 095°05'1 1.5
2018-Apr-20 17:57N 29°45' W 095°06'0 0.1
2018-Apr-20 16:29N 29°45' W 095°06'0 0.1
2018-Apr-20 12:43N 29°45' W 095°06'1 0.7
2018-Apr-20 10:35N 29°46' W 095°05'4 0.4
2018-Apr-19 23:49N 29°43' W 095°01'0 1.0
2018-Apr-19 23:28N 29°42' W 095°01'0 0.0
2018-Apr-19 22:58N 29°42' W 095°01'0 0.0
2018-Apr-19 22:16N 29°42' W 095°01'1 4.0
2018-Apr-19 21:58N 29°42' W 094°60'1 1.9
2018-Apr-19 21:27N 29°41' W 095°00'0 0.7
2018-Apr-19 20:58N 29°41' W 095°01'1 2.5
2018-Apr-19 20:30N 29°41' W 094°59'3 5.8
2018-Apr-19 20:00N 29°44' W 095°01'0 0.0
2018-Apr-19 19:30N 29°44' W 095°01'0 0.0
2018-Apr-19 19:00N 29°44' W 095°01'4 7.8
2018-Apr-19 18:30N 29°46' W 095°05'5 6.6
2018-Apr-19 17:48N 29°45' W 095°11'0 0.0
2018-Apr-19 17:29N 29°45' W 095°11'0 0.0
2018-Apr-19 16:58N 29°45' W 095°11'0 0.0
2018-Apr-19 16:29N 29°45' W 095°11'0 0.0
2018-Apr-19 16:00N 29°45' W 095°11'0 0.0
2018-Apr-19 15:29N 29°45' W 095°11'0 0.0
2018-Apr-19 14:58N 29°45' W 095°11'0 0.0
2018-Apr-19 14:29N 29°45' W 095°10'0 0.0
2018-Apr-19 13:59N 29°45' W 095°11'0 0.0
2018-Apr-19 13:30N 29°45' W 095°11'4 0.3
2018-Apr-18 23:38N 29°45' W 095°06'0 0.2
2018-Apr-18 22:34N 29°45' W 095°06'0 0.8
2018-Apr-18 22:09N 29°45' W 095°07'0 0.1
2018-Apr-18 21:42N 29°45' W 095°07'0 0.3
2018-Apr-18 20:26N 29°44' W 095°07'1 1.5
2018-Apr-18 19:44N 29°44' W 095°08'1 2.2
2018-Apr-18 19:24N 29°44' W 095°07'0 0.0
2018-Apr-18 18:48N 29°44' W 095°07'0 1.1
2018-Apr-18 18:30N 29°44' W 095°07'0 0.7
2018-Apr-18 18:00N 29°44' W 095°08'0 0.0
2018-Apr-18 17:29N 29°44' W 095°08'0 0.0
2018-Apr-18 17:00N 29°44' W 095°08'1 1.0
2018-Apr-18 16:24N 29°44' W 095°07'0 0.5
2018-Apr-18 15:26N 29°44' W 095°07'1 2.1
2018-Apr-18 14:56N 29°45' W 095°06'0 0.0
2018-Apr-18 07:03N 29°45' W 095°06'2 6.4
2018-Apr-18 06:44N 29°46' W 095°04'2 1.2
2018-Apr-18 05:09N 29°44' W 095°03'3 8.9
2018-Apr-18 04:51N 29°46' W 095°05'3 1.8
2018-Apr-18 03:18N 29°44' W 095°08'0 0.6
2018-Apr-18 02:59N 29°44' W 095°08'0 0.6
2018-Apr-18 02:25N 29°44' W 095°07'1 3.5
2018-Apr-18 02:01N 29°45' W 095°06'0 0.0
2018-Apr-18 01:30N 29°45' W 095°06'3 5.6
2018-Apr-18 00:58N 29°44' W 095°03'4 7.6
2018-Apr-18 00:28N 29°42' W 094°59'510.1
2018-Apr-18 00:00N 29°37' W 094°57'2 4.8
2018-Apr-17 23:30N 29°37' W 095°00'2 3.6
2018-Apr-17 23:00N 29°37' W 094°58'4 9.1
2018-Apr-17 22:30N 29°41' W 094°59'4 7.8
2018-Apr-17 22:00N 29°44' W 095°02'1 1.5
2018-Apr-17 21:29N 29°44' W 095°03'2 1.6
2018-Apr-17 20:26N 29°44' W 095°01'3 7.0
2018-Apr-17 20:00N 29°45' W 095°04'3 5.1
2018-Apr-17 19:29N 29°44' W 095°07'0 0.0
2018-Apr-17 18:59N 29°44' W 095°07'0 0.0
2018-Apr-17 18:29N 29°44' W 095°07'1 1.2
2018-Apr-17 18:00N 29°44' W 095°08'0 0.2
2018-Apr-17 17:29N 29°44' W 095°08'2 3.2
2018-Apr-17 16:59N 29°45' W 095°06'1 1.3
2018-Apr-17 16:28N 29°45' W 095°07'0 0.0
2018-Apr-17 15:58N 29°45' W 095°07'1 2.7
2018-Apr-17 15:30N 29°44' W 095°08'4 3.2
2018-Apr-17 14:23N 29°45' W 095°12'2 3.0
2018-Apr-17 13:47N 29°45' W 095°10'3 7.1
2018-Apr-17 13:22N 29°44' W 095°07'0 0.1
2018-Apr-17 12:59N 29°45' W 095°07'0 0.0
2018-Apr-17 12:29N 29°45' W 095°07'1 0.2
2018-Apr-17 10:24N 29°45' W 095°06'2 3.5
2018-Apr-17 09:54N 29°44' W 095°08'1 0.6
2018-Apr-17 07:47N 29°45' W 095°07'0 0.0
2018-Apr-17 07:25N 29°45' W 095°07'1 1.9
2018-Apr-17 06:57N 29°45' W 095°06'0 0.6
2018-Apr-17 06:30N 29°45' W 095°06'1 2.0
2018-Apr-17 05:58N 29°44' W 095°06'3 0.5
2018-Apr-16 23:15N 29°45' W 095°10'3 0.8
2018-Apr-16 19:15N 29°44' W 095°07'1 3.0
2018-Apr-16 19:00N 29°45' W 095°06'1 0.6
2018-Apr-16 17:50N 29°45' W 095°07'3 5.9
2018-Apr-16 17:17N 29°44' W 095°03'1 5.3
2018-Apr-16 17:00N 29°44' W 095°01'0 0.0
2018-Apr-16 16:30N 29°44' W 095°01'0 0.0
2018-Apr-16 16:00N 29°44' W 095°01'0 0.7
2018-Apr-16 15:30N 29°43' W 095°01'1 2.8
2018-Apr-16 15:00N 29°42' W 095°01'0 0.2
2018-Apr-16 13:14N 29°42' W 095°01'1 5.2
2018-Apr-16 13:00N 29°43' W 095°01'0 0.0
2018-Apr-16 12:30N 29°43' W 095°01'0 0.7
2018-Apr-16 11:58N 29°43' W 095°01'1 1.0
2018-Apr-16 11:13N 29°42' W 095°01'1 7.1
2018-Apr-16 11:00N 29°44' W 095°02'3 5.1
2018-Apr-16 10:30N 29°42' W 094°60'4 8.9
2018-Apr-16 10:00N 29°38' W 094°58'510.1
2018-Apr-16 09:30N 29°33' W 094°55'6 1.3
2018-Apr-16 04:52N 29°28' W 094°51'410.7
2018-Apr-16 04:30N 29°31' W 094°53'510.2
2018-Apr-16 04:00N 29°36' W 094°57'510.0
2018-Apr-16 03:30N 29°40' W 094°59'  
Track history (hours):
 
Tides and Currents Weather Stations Pressure Air Temp Water Temp Dewpoint Dewpoint Depression Visibility Wind Speed Wind Dir Waves Ship Positions

Oceanus

Owner: G & H TOWING COMPANY, Galveston, TX. More information available from US FCC via Universal Licensing System and Coast Guard Vessel Documentation Center.

Last reported at 2018-Apr-26 03:20 UTC. Time now 2018-Apr-26 03:34 UTC.
Position N 29°45' W 095°06'.

Length 24 m; draft 5.4 m.

Type: Tug. MMSI: 367735750.

Date/timePositionNaut miles runAvg speedWind from/ knotsBaromVisibWave heightAir tempDewpointWater temp
2018-Apr-26 03:20N 29°45' W 095°06'1 0.2
2018-Apr-25 23:06N 29°44' W 095°07'0 0.0
2018-Apr-25 22:59N 29°44' W 095°07'0 0.0
2018-Apr-25 22:17N 29°44' W 095°07'0 0.0
2018-Apr-25 21:59N 29°44' W 095°07'0 0.0
2018-Apr-25 21:29N 29°44' W 095°07'0 0.0
2018-Apr-25 20:56N 29°44' W 095°07'0 0.0
2018-Apr-25 20:26N 29°44' W 095°07'0 0.0
2018-Apr-25 19:59N 29°44' W 095°07'1 1.2
2018-Apr-25 19:30N 29°44' W 095°08'0 0.1
2018-Apr-25 19:00N 29°44' W 095°08'1 2.4
2018-Apr-25 18:25N 29°45' W 095°06'1 1.8
2018-Apr-25 17:58N 29°44' W 095°07'0 0.0
2018-Apr-25 17:26N 29°44' W 095°07'1 1.3
2018-Apr-25 16:56N 29°44' W 095°08'1 0.6
2018-Apr-25 15:54N 29°44' W 095°07'1 1.2
2018-Apr-25 15:29N 29°44' W 095°07'0 0.3
2018-Apr-25 14:58N 29°44' W 095°08'1 0.2
2018-Apr-25 12:37N 29°44' W 095°07'0 0.0
2018-Apr-25 12:28N 29°44' W 095°07'1 1.4
2018-Apr-25 12:00N 29°44' W 095°08'0 0.3
2018-Apr-25 11:27N 29°44' W 095°08'1 1.4
2018-Apr-25 10:47N 29°45' W 095°07'0 0.0
2018-Apr-25 10:28N 29°45' W 095°07'0 0.3
2018-Apr-25 09:32N 29°44' W 095°07'0 2.5
2018-Apr-25 09:28N 29°44' W 095°07'0 0.0
2018-Apr-24 21:57N 29°44' W 095°07'0 0.1
2018-Apr-24 21:17N 29°44' W 095°07'1 1.7
2018-Apr-24 20:45N 29°45' W 095°06'0 0.7
2018-Apr-24 20:29N 29°45' W 095°06'4 7.3
2018-Apr-24 19:59N 29°45' W 095°10'3 0.6
2018-Apr-24 16:01N 29°44' W 095°08'0 5.6
2018-Apr-24 16:00N 29°44' W 095°08'1 1.7
2018-Apr-24 15:29N 29°45' W 095°07'0 0.0
2018-Apr-24 14:58N 29°45' W 095°07'0 0.0
2018-Apr-24 14:28N 29°45' W 095°07'0 0.0
2018-Apr-24 14:00N 29°45' W 095°07'0 0.0
2018-Apr-24 13:30N 29°45' W 095°07'0 0.0
2018-Apr-24 03:32N 29°44' W 095°07'0 1.8
2018-Apr-24 03:30N 29°44' W 095°07'5 2.3
2018-Apr-24 01:25N 29°43' W 095°01'1 2.3
2018-Apr-24 00:52N 29°42' W 095°01'0 0.0
2018-Apr-24 00:22N 29°42' W 095°01'0 0.0
2018-Apr-23 23:56N 29°42' W 095°01'3 5.8
2018-Apr-23 23:30N 29°44' W 095°03'0 0.3
2018-Apr-23 23:00N 29°44' W 095°03'0 0.9
2018-Apr-23 22:28N 29°44' W 095°03'1 2.0
2018-Apr-23 22:00N 29°44' W 095°04'3 5.7
2018-Apr-23 21:30N 29°44' W 095°07'1 0.4
2018-Apr-23 19:38N 29°45' W 095°06'1 0.7
2018-Apr-23 18:50N 29°44' W 095°07'0 0.1
2018-Apr-23 13:02N 29°45' W 095°06'0 0.5
2018-Apr-23 12:22N 29°45' W 095°06'0 0.2
2018-Apr-23 11:49N 29°45' W 095°06'0 0.3
2018-Apr-23 10:53N 29°45' W 095°06'2 3.8
2018-Apr-23 10:15N 29°44' W 095°09'4 7.0
2018-Apr-23 09:39N 29°44' W 095°14'3 0.1
2018-Apr-22 06:24N 29°45' W 095°10'0 0.5
2018-Apr-22 05:54N 29°45' W 095°10'0 0.0
2018-Apr-22 05:30N 29°45' W 095°10'4 0.8
2018-Apr-22 00:56N 29°45' W 095°06'0 0.1
2018-Apr-21 22:36N 29°45' W 095°06'0 0.4
2018-Apr-21 21:18N 29°45' W 095°06'1 2.5
2018-Apr-21 20:57N 29°46' W 095°05'2 3.4
2018-Apr-21 20:30N 29°45' W 095°07'0 0.3
2018-Apr-21 20:00N 29°44' W 095°07'2 3.5
2018-Apr-21 19:26N 29°44' W 095°09'2 1.9
2018-Apr-21 18:29N 29°44' W 095°07'0 0.4
2018-Apr-21 18:00N 29°45' W 095°07'0 0.1
2018-Apr-21 15:38N 29°44' W 095°07'0 0.0
2018-Apr-21 15:28N 29°44' W 095°07'0 0.0
2018-Apr-21 14:34N 29°44' W 095°07'1 0.4
2018-Apr-21 13:16N 29°44' W 095°08'1 0.0
2018-Apr-20 22:47N 29°44' W 095°07'0 1.5
2018-Apr-20 22:29N 29°44' W 095°07'0 0.0
2018-Apr-20 21:56N 29°44' W 095°07'1 1.5
2018-Apr-20 21:29N 29°44' W 095°07'2 0.7
2018-Apr-20 19:02N 29°46' W 095°05'0 0.0
2018-Apr-20 18:48N 29°46' W 095°05'1 1.5
2018-Apr-20 17:57N 29°45' W 095°06'0 0.1
2018-Apr-20 16:29N 29°45' W 095°06'0 0.1
2018-Apr-20 12:43N 29°45' W 095°06'1 0.7
2018-Apr-20 10:35N 29°46' W 095°05'4 0.4
2018-Apr-19 23:49N 29°43' W 095°01'0 1.0
2018-Apr-19 23:28N 29°42' W 095°01'0 0.0
2018-Apr-19 22:58N 29°42' W 095°01'0 0.0
2018-Apr-19 22:16N 29°42' W 095°01'1 4.0
2018-Apr-19 21:58N 29°42' W 094°60'1 1.9
2018-Apr-19 21:27N 29°41' W 095°00'0 0.7
2018-Apr-19 20:58N 29°41' W 095°01'1 2.5
2018-Apr-19 20:30N 29°41' W 094°59'3 5.8
2018-Apr-19 20:00N 29°44' W 095°01'0 0.0
2018-Apr-19 19:30N 29°44' W 095°01'0 0.0
2018-Apr-19 19:00N 29°44' W 095°01'4 7.8
2018-Apr-19 18:30N 29°46' W 095°05'5 6.6
2018-Apr-19 17:48N 29°45' W 095°11'0 0.0
2018-Apr-19 17:29N 29°45' W 095°11'0 0.0
2018-Apr-19 16:58N 29°45' W 095°11'0 0.0
2018-Apr-19 16:29N 29°45' W 095°11'0 0.0
2018-Apr-19 16:00N 29°45' W 095°11'0 0.0
2018-Apr-19 15:29N 29°45' W 095°11'0 0.0
2018-Apr-19 14:58N 29°45' W 095°11'0 0.0
2018-Apr-19 14:29N 29°45' W 095°10'0 0.0
2018-Apr-19 13:59N 29°45' W 095°11'0 0.0
2018-Apr-19 13:30N 29°45' W 095°11'4 0.3
2018-Apr-18 23:38N 29°45' W 095°06'0 0.2
2018-Apr-18 22:34N 29°45' W 095°06'0 0.8
2018-Apr-18 22:09N 29°45' W 095°07'0 0.1
2018-Apr-18 21:42N 29°45' W 095°07'0 0.3
2018-Apr-18 20:26N 29°44' W 095°07'1 1.5
2018-Apr-18 19:44N 29°44' W 095°08'1 2.2
2018-Apr-18 19:24N 29°44' W 095°07'0 0.0
2018-Apr-18 18:48N 29°44' W 095°07'0 1.1
2018-Apr-18 18:30N 29°44' W 095°07'0 0.7
2018-Apr-18 18:00N 29°44' W 095°08'0 0.0
2018-Apr-18 17:29N 29°44' W 095°08'0 0.0
2018-Apr-18 17:00N 29°44' W 095°08'1 1.0
2018-Apr-18 16:24N 29°44' W 095°07'0 0.5
2018-Apr-18 15:26N 29°44' W 095°07'1 2.1
2018-Apr-18 14:56N 29°45' W 095°06'0 0.0
2018-Apr-18 07:03N 29°45' W 095°06'2 6.4
2018-Apr-18 06:44N 29°46' W 095°04'2 1.2
2018-Apr-18 05:09N 29°44' W 095°03'3 8.9
2018-Apr-18 04:51N 29°46' W 095°05'3 1.8
2018-Apr-18 03:18N 29°44' W 095°08'0 0.6
2018-Apr-18 02:59N 29°44' W 095°08'0 0.6
2018-Apr-18 02:25N 29°44' W 095°07'1 3.5
2018-Apr-18 02:01N 29°45' W 095°06'0 0.0
2018-Apr-18 01:30N 29°45' W 095°06'3 5.6
2018-Apr-18 00:58N 29°44' W 095°03'4 7.6
2018-Apr-18 00:28N 29°42' W 094°59'510.1
2018-Apr-18 00:00N 29°37' W 094°57'2 4.8
2018-Apr-17 23:30N 29°37' W 095°00'2 3.6
2018-Apr-17 23:00N 29°37' W 094°58'4 9.1
2018-Apr-17 22:30N 29°41' W 094°59'4 7.8
2018-Apr-17 22:00N 29°44' W 095°02'1 1.5
2018-Apr-17 21:29N 29°44' W 095°03'2 1.6
2018-Apr-17 20:26N 29°44' W 095°01'3 7.0
2018-Apr-17 20:00N 29°45' W 095°04'3 5.1
2018-Apr-17 19:29N 29°44' W 095°07'0 0.0
2018-Apr-17 18:59N 29°44' W 095°07'0 0.0
2018-Apr-17 18:29N 29°44' W 095°07'1 1.2
2018-Apr-17 18:00N 29°44' W 095°08'0 0.2
2018-Apr-17 17:29N 29°44' W 095°08'2 3.2
2018-Apr-17 16:59N 29°45' W 095°06'1 1.3
2018-Apr-17 16:28N 29°45' W 095°07'0 0.0
2018-Apr-17 15:58N 29°45' W 095°07'1 2.7
2018-Apr-17 15:30N 29°44' W 095°08'4 3.2
2018-Apr-17 14:23N 29°45' W 095°12'2 3.0
2018-Apr-17 13:47N 29°45' W 095°10'3 7.1
2018-Apr-17 13:22N 29°44' W 095°07'0 0.1
2018-Apr-17 12:59N 29°45' W 095°07'0 0.0
2018-Apr-17 12:29N 29°45' W 095°07'1 0.2
2018-Apr-17 10:24N 29°45' W 095°06'2 3.5
2018-Apr-17 09:54N 29°44' W 095°08'1 0.6
2018-Apr-17 07:47N 29°45' W 095°07'0 0.0
2018-Apr-17 07:25N 29°45' W 095°07'1 1.9
2018-Apr-17 06:57N 29°45' W 095°06'0 0.6
2018-Apr-17 06:30N 29°45' W 095°06'1 2.0
2018-Apr-17 05:58N 29°44' W 095°06'3 0.5
2018-Apr-16 23:15N 29°45' W 095°10'3 0.8
2018-Apr-16 19:15N 29°44' W 095°07'1 3.0
2018-Apr-16 19:00N 29°45' W 095°06'1 0.6
2018-Apr-16 17:50N 29°45' W 095°07'3 5.9
2018-Apr-16 17:17N 29°44' W 095°03'1 5.3
2018-Apr-16 17:00N 29°44' W 095°01'0 0.0
2018-Apr-16 16:30N 29°44' W 095°01'0 0.0
2018-Apr-16 16:00N 29°44' W 095°01'0 0.7
2018-Apr-16 15:30N 29°43' W 095°01'1 2.8
2018-Apr-16 15:00N 29°42' W 095°01'0 0.2
2018-Apr-16 13:14N 29°42' W 095°01'1 5.2
2018-Apr-16 13:00N 29°43' W 095°01'0 0.0
2018-Apr-16 12:30N 29°43' W 095°01'0 0.7
2018-Apr-16 11:58N 29°43' W 095°01'1 1.0
2018-Apr-16 11:13N 29°42' W 095°01'1 7.1
2018-Apr-16 11:00N 29°44' W 095°02'3 5.1
2018-Apr-16 10:30N 29°42' W 094°60'4 8.9
2018-Apr-16 10:00N 29°38' W 094°58'510.1
2018-Apr-16 09:30N 29°33' W 094°55'6 1.3
2018-Apr-16 04:52N 29°28' W 094°51'410.7
2018-Apr-16 04:30N 29°31' W 094°53'510.2
2018-Apr-16 04:00N 29°36' W 094°57'510.0
2018-Apr-16 03:30N 29°40' W 094°59'  

Dump ship's entire track history